PABT/BTT METAR and TAF weather

Enter ICAO airport designator
Station Type Date Time Source
PABT METAR 2023/01/30 10:53 UTC NOAA

PABT 301053Z 33006KT 10SM FEW095 SCT130 M18/M21 A3025 RMK AO2 SLP266 T11831211 $


Station Type Date Time Source
PABT Decoded METAR 2023/01/30 10:53 UTC NOAA

BETTLES AIRPORT, AK, United States (PABT) 66-54N 151-31W 196M
Jan 30, 2023 - 05:53 AM EST / 2023.01.30 1053 UTC
Wind: from the NNW (330 degrees) at 7 MPH (6 KT):0
Visibility: 10 mile(s):0
Sky conditions: partly cloudy
Temperature: -0.9 F (-18.3 C)
Windchill: -14 F (-26 C):2
Dew Point: -6.0 F (-21.1 C)
Relative Humidity: 78%
Pressure (altimeter): 30.25 in. Hg (1024 hPa)
ob: PABT 301053Z 33006KT 10SM FEW095 SCT130 M18/M21 A3025 RMK AO2 SLP266 T11831211
cycle: 11

Station Type Date Time Source
PABT TAF 2023/01/30 06:30 UTC NOAA

TAF PABT 300528Z 3006/3106 03005KT P6SM SCT050 BKN100

Example: see airport list